Time;durP1;ratioP1;P1;durP2;ratioP2;P2;SDS_P1;SDS_P2;PMS_P1;PMS_P2;Temp;Humidity;BMP_temperature;BMP_pressure;BME280_temperature;BME280_humidity;BME280_pressure;Samples;Min_cycle;Max_cycle;Signal;HPM_P1;HPM_P2
2023/03/17 00:02:11;;;;;;;8.90;5.50;;;;;;;;;;5132239;27;20047;-82
2023/03/17 00:04:37;;;;;;;9.50;5.45;;;;;;;;;;5132033;27;20479;-82
2023/03/17 00:07:05;;;;;;;9.43;5.68;;;;;;;;;;5114991;27;20047;-81
2023/03/17 00:09:31;;;;;;;12.35;5.38;;;;;;;;;;5152935;27;20495;-82
2023/03/17 00:11:58;;;;;;;12.00;5.53;;;;;;;;;;5152420;27;20039;-82
2023/03/17 00:14:24;;;;;;;7.57;4.93;;;;;;;;;;5152565;27;20037;-82
2023/03/17 00:16:51;;;;;;;9.10;5.55;;;;;;;;;;5152108;27;20057;-81
2023/03/17 00:19:29;;;;;;;10.50;6.00;;;;;;;;;;5153731;27;20039;-82
2023/03/17 00:21:56;;;;;;;8.38;5.53;;;;;;;;;;5142938;27;20047;-80
2023/03/17 00:24:23;;;;;;;8.45;5.45;;;;;;;;;;5130402;27;20043;-80
2023/03/17 00:26:49;;;;;;;10.55;5.47;;;;;;;;;;5152277;27;20038;-82
2023/03/17 00:29:15;;;;;;;9.68;5.82;;;;;;;;;;5135216;27;20074;-82
2023/03/17 00:31:43;;;;;;;9.25;5.85;;;;;;;;;;5152107;27;20035;-81
2023/03/17 00:34:15;;;;;;;8.80;5.35;;;;;;;;;;5152826;27;20047;-82
2023/03/17 00:36:42;;;;;;;8.77;5.40;;;;;;;;;;5151892;27;20042;-82
2023/03/17 00:39:13;;;;;;;9.10;4.82;;;;;;;;;;5135525;27;20047;-82
2023/03/17 00:41:39;;;;;;;7.18;4.70;;;;;;;;;;5152058;27;20042;-81
2023/03/17 00:44:05;;;;;;;9.15;4.97;;;;;;;;;;5152491;27;20039;-82
2023/03/17 00:46:36;;;;;;;8.82;4.97;;;;;;;;;;5152432;27;20387;-82
2023/03/17 00:49:04;;;;;;;11.13;4.30;;;;;;;;;;5126592;28;20035;-82
2023/03/17 00:51:30;;;;;;;8.15;4.60;;;;;;;;;;5146899;27;20076;-82
2023/03/17 00:53:56;;;;;;;8.23;4.68;;;;;;;;;;5152076;27;20057;-82
2023/03/17 00:56:22;;;;;;;7.47;4.63;;;;;;;;;;5152402;27;20494;-82
2023/03/17 00:58:49;;;;;;;8.23;4.38;;;;;;;;;;5152124;27;20043;-82
2023/03/17 01:01:15;;;;;;;6.50;4.18;;;;;;;;;;5142598;27;20039;-82
2023/03/17 01:03:41;;;;;;;7.82;4.55;;;;;;;;;;5132146;27;20035;-82
2023/03/17 01:06:09;;;;;;;7.35;4.13;;;;;;;;;;5144957;27;20043;-81
2023/03/17 01:08:36;;;;;;;9.55;4.80;;;;;;;;;;5131560;28;20091;-82
2023/03/17 01:11:02;;;;;;;10.60;5.10;;;;;;;;;;5131001;28;20073;-81
2023/03/17 01:13:28;;;;;;;10.38;4.63;;;;;;;;;;5131474;28;20076;-81
2023/03/17 01:15:55;;;;;;;8.98;4.65;;;;;;;;;;5130946;28;20039;-81
2023/03/17 01:18:22;;;;;;;8.48;4.38;;;;;;;;;;5131798;28;20092;-81
2023/03/17 01:20:48;;;;;;;8.05;5.05;;;;;;;;;;5113733;28;20081;-80
2023/03/17 01:23:15;;;;;;;8.27;4.68;;;;;;;;;;5114227;28;20043;-80
2023/03/17 01:25:42;;;;;;;6.28;4.22;;;;;;;;;;5131328;27;20075;-80
2023/03/17 01:28:18;;;;;;;8.98;4.80;;;;;;;;;;5101996;27;20031;-81
2023/03/17 01:30:44;;;;;;;7.13;4.60;;;;;;;;;;5134989;27;20399;-81
2023/03/17 01:33:11;;;;;;;7.13;4.30;;;;;;;;;;5134731;27;20037;-80
2023/03/17 01:35:38;;;;;;;7.38;4.40;;;;;;;;;;5134706;27;20043;-81
2023/03/17 01:38:05;;;;;;;8.13;4.43;;;;;;;;;;5135315;27;20475;-81
2023/03/17 01:40:33;;;;;;;7.30;4.40;;;;;;;;;;5136025;27;20501;-82
2023/03/17 01:43:02;;;;;;;7.65;4.50;;;;;;;;;;5134676;27;20361;-81
2023/03/17 01:45:47;;;;;;;8.30;4.53;;;;;;;;;;5134552;27;20072;-80
2023/03/17 01:48:14;;;;;;;8.60;4.75;;;;;;;;;;5134338;27;20047;-80
2023/03/17 01:50:41;;;;;;;11.35;4.90;;;;;;;;;;5134580;27;20042;-80
2023/03/17 01:53:08;;;;;;;8.50;4.57;;;;;;;;;;5100116;27;20147;-80
2023/03/17 01:55:34;;;;;;;9.48;4.78;;;;;;;;;;5134489;27;20061;-81
2023/03/17 01:58:00;;;;;;;7.93;4.85;;;;;;;;;;5133968;27;20039;-80
2023/03/17 02:00:26;;;;;;;9.07;5.35;;;;;;;;;;5133986;27;20039;-82
2023/03/17 02:02:54;;;;;;;7.90;5.00;;;;;;;;;;5134245;27;20122;-82
2023/03/17 02:05:28;;;;;;;11.48;5.03;;;;;;;;;;5119726;27;20050;-82
2023/03/17 02:07:54;;;;;;;8.88;5.10;;;;;;;;;;5137351;27;20052;-80
2023/03/17 02:10:22;;;;;;;7.32;4.63;;;;;;;;;;5120802;27;20499;-80
2023/03/17 02:12:52;;;;;;;8.93;5.00;;;;;;;;;;5137900;27;20529;-80
2023/03/17 02:15:19;;;;;;;8.55;5.10;;;;;;;;;;5154431;27;20054;-80
2023/03/17 02:17:45;;;;;;;7.75;4.63;;;;;;;;;;5158117;27;20034;-80
2023/03/17 02:20:17;;;;;;;8.30;4.50;;;;;;;;;;5157930;27;20050;-80
2023/03/17 02:22:48;;;;;;;8.00;4.30;;;;;;;;;;5158023;27;20159;-80
2023/03/17 02:25:15;;;;;;;9.02;5.43;;;;;;;;;;5157643;27;20114;-81
2023/03/17 02:27:43;;;;;;;8.82;5.30;;;;;;;;;;5140413;27;20035;-80
2023/03/17 02:30:11;;;;;;;7.70;4.72;;;;;;;;;;5126053;27;20479;-80
2023/03/17 02:32:37;;;;;;;7.97;4.68;;;;;;;;;;5157862;27;20045;-80
2023/03/17 02:35:03;;;;;;;8.68;4.55;;;;;;;;;;5157937;27;20042;-81
2023/03/17 02:37:33;;;;;;;8.02;4.50;;;;;;;;;;5140437;27;20038;-81
2023/03/17 02:40:04;;;;;;;7.95;4.47;;;;;;;;;;5157708;27;20085;-80
2023/03/17 02:42:30;;;;;;;7.80;4.93;;;;;;;;;;5176343;27;20113;-81
2023/03/17 02:44:56;;;;;;;9.05;4.80;;;;;;;;;;5140033;27;20095;-81
2023/03/17 02:47:22;;;;;;;7.95;4.47;;;;;;;;;;5157278;27;20117;-79
2023/03/17 02:49:49;;;;;;;8.25;4.70;;;;;;;;;;5140732;27;20516;-80
2023/03/17 02:52:15;;;;;;;7.82;4.80;;;;;;;;;;5157426;27;20422;-80
2023/03/17 02:54:41;;;;;;;8.25;4.50;;;;;;;;;;5116233;27;20064;-80
2023/03/17 02:57:07;;;;;;;7.28;4.50;;;;;;;;;;5132836;27;20034;-80
2023/03/17 02:59:34;;;;;;;8.60;4.68;;;;;;;;;;5157382;27;20078;-80
2023/03/17 03:02:00;;;;;;;9.25;4.57;;;;;;;;;;5135793;27;20035;-80
2023/03/17 03:04:26;;;;;;;8.27;4.82;;;;;;;;;;5119038;27;20053;-80
2023/03/17 03:06:53;;;;;;;7.57;4.70;;;;;;;;;;5101207;28;20090;-80
2023/03/17 03:09:20;;;;;;;8.73;4.60;;;;;;;;;;5148582;27;20088;-80
2023/03/17 03:11:46;;;;;;;8.52;4.65;;;;;;;;;;5153372;27;20122;-80
2023/03/17 03:14:13;;;;;;;7.10;4.35;;;;;;;;;;5139309;27;20096;-82
2023/03/17 03:16:39;;;;;;;7.05;4.35;;;;;;;;;;5153412;27;20047;-81
2023/03/17 03:19:06;;;;;;;8.65;4.90;;;;;;;;;;5153425;27;20039;-80
2023/03/17 03:21:32;;;;;;;9.30;4.60;;;;;;;;;;5136286;27;20095;-81
2023/03/17 03:23:59;;;;;;;8.90;4.75;;;;;;;;;;5153415;27;20452;-80
2023/03/17 03:26:26;;;;;;;7.40;4.15;;;;;;;;;;5144159;27;20043;-81
2023/03/17 03:28:52;;;;;;;8.43;4.82;;;;;;;;;;5148518;27;20424;-80
2023/03/17 03:31:19;;;;;;;10.38;4.53;;;;;;;;;;5153382;27;20386;-80
2023/03/17 03:33:45;;;;;;;8.07;4.68;;;;;;;;;;5154748;27;20559;-80
2023/03/17 03:36:12;;;;;;;7.35;4.32;;;;;;;;;;5121391;27;20070;-80
2023/03/17 03:38:38;;;;;;;6.63;4.60;;;;;;;;;;5124118;27;20039;-81
2023/03/17 03:41:05;;;;;;;7.10;4.20;;;;;;;;;;5136135;27;20479;-80
2023/03/17 03:43:31;;;;;;;7.30;4.57;;;;;;;;;;5153055;27;20046;-81
2023/03/17 03:45:57;;;;;;;7.43;4.28;;;;;;;;;;5153339;27;20047;-81
2023/03/17 03:48:23;;;;;;;7.00;4.35;;;;;;;;;;5144478;27;20043;-80
2023/03/17 03:50:49;;;;;;;6.55;4.18;;;;;;;;;;5146466;27;20030;-81
2023/03/17 03:53:15;;;;;;;7.55;4.68;;;;;;;;;;5135419;27;20056;-80
2023/03/17 03:55:41;;;;;;;6.93;4.63;;;;;;;;;;5126737;27;20122;-80
2023/03/17 03:58:07;;;;;;;8.30;4.53;;;;;;;;;;5152382;27;20119;-80
2023/03/17 04:00:34;;;;;;;6.38;4.30;;;;;;;;;;5127890;27;20039;-80
2023/03/17 04:03:00;;;;;;;7.72;4.68;;;;;;;;;;5131824;27;20075;-81
2023/03/17 04:05:26;;;;;;;8.60;4.68;;;;;;;;;;5146078;27;20062;-81
2023/03/17 04:07:53;;;;;;;8.30;4.40;;;;;;;;;;5141668;27;20049;-81
2023/03/17 04:10:19;;;;;;;8.93;4.38;;;;;;;;;;5152718;27;20486;-82
2023/03/17 04:12:45;;;;;;;7.47;4.55;;;;;;;;;;5144981;27;20035;-82
2023/03/17 04:15:14;;;;;;;6.35;4.07;;;;;;;;;;5151496;27;20050;-81
2023/03/17 04:17:40;;;;;;;7.72;4.55;;;;;;;;;;5135463;27;20127;-82
2023/03/17 04:20:06;;;;;;;6.75;3.65;;;;;;;;;;5153190;27;20072;-81
2023/03/17 04:22:33;;;;;;;6.53;4.10;;;;;;;;;;5153171;27;20440;-80
2023/03/17 04:24:59;;;;;;;7.75;4.00;;;;;;;;;;5137948;27;20051;-80
2023/03/17 04:27:25;;;;;;;8.70;4.15;;;;;;;;;;5145183;27;20071;-80
2023/03/17 04:29:52;;;;;;;8.52;4.10;;;;;;;;;;5132181;28;20035;-80
2023/03/17 04:32:18;;;;;;;7.53;4.18;;;;;;;;;;5131693;28;20172;-80
2023/03/17 04:34:44;;;;;;;10.65;4.88;;;;;;;;;;5129064;28;20036;-80
2023/03/17 04:37:11;;;;;;;8.27;4.32;;;;;;;;;;5144011;27;20491;-80
2023/03/17 04:39:37;;;;;;;9.05;4.40;;;;;;;;;;5148278;27;20043;-80
2023/03/17 04:42:04;;;;;;;7.85;4.32;;;;;;;;;;5142590;27;20372;-80
2023/03/17 04:44:31;;;;;;;5.90;3.70;;;;;;;;;;5134896;27;20049;-80
2023/03/17 04:46:57;;;;;;;8.05;4.15;;;;;;;;;;5152518;27;20114;-80
2023/03/17 04:49:23;;;;;;;6.88;4.18;;;;;;;;;;5151841;27;20070;-80
2023/03/17 04:51:49;;;;;;;7.85;4.38;;;;;;;;;;5135220;27;20042;-80
2023/03/17 04:54:15;;;;;;;6.22;4.10;;;;;;;;;;5147790;27;20299;-80
2023/03/17 04:56:42;;;;;;;7.47;4.25;;;;;;;;;;5142747;27;20577;-82
2023/03/17 04:59:08;;;;;;;6.90;3.95;;;;;;;;;;5149956;27;20436;-81
2023/03/17 05:01:34;;;;;;;6.93;4.35;;;;;;;;;;5123174;27;20044;-80
2023/03/17 05:04:00;;;;;;;7.03;3.97;;;;;;;;;;5136443;27;20047;-80
2023/03/17 05:06:26;;;;;;;6.60;4.07;;;;;;;;;;5154786;27;20061;-80
2023/03/17 05:08:53;;;;;;;8.75;3.90;;;;;;;;;;5141111;27;20034;-80
2023/03/17 05:11:19;;;;;;;6.45;4.25;;;;;;;;;;5155941;27;20095;-81
2023/03/17 05:13:45;;;;;;;7.35;4.53;;;;;;;;;;5155945;27;20045;-80
2023/03/17 05:16:11;;;;;;;7.47;4.00;;;;;;;;;;5145767;27;20043;-80
2023/03/17 05:18:38;;;;;;;9.07;4.25;;;;;;;;;;5137130;27;20418;-80
2023/03/17 05:21:07;;;;;;;7.82;4.18;;;;;;;;;;5155879;27;20066;-80
2023/03/17 05:23:34;;;;;;;8.60;3.80;;;;;;;;;;5155479;27;20402;-82
2023/03/17 05:26:00;;;;;;;7.43;4.38;;;;;;;;;;5138666;27;20041;-80
2023/03/17 05:28:26;;;;;;;8.20;4.10;;;;;;;;;;5155338;27;20038;-81
2023/03/17 05:30:53;;;;;;;7.05;3.75;;;;;;;;;;5142382;27;20454;-80
2023/03/17 05:33:20;;;;;;;7.45;3.97;;;;;;;;;;5155346;27;20375;-81
2023/03/17 05:35:46;;;;;;;7.43;4.22;;;;;;;;;;5155511;27;20114;-80
2023/03/17 05:38:14;;;;;;;8.90;4.20;;;;;;;;;;5138361;27;20038;-80
2023/03/17 05:40:40;;;;;;;7.85;4.35;;;;;;;;;;5137831;27;20038;-80
2023/03/17 05:43:06;;;;;;;7.75;4.03;;;;;;;;;;5138323;27;20050;-81
2023/03/17 05:45:32;;;;;;;6.68;4.30;;;;;;;;;;5137949;27;20511;-80
2023/03/17 05:47:59;;;;;;;6.60;4.03;;;;;;;;;;5155174;27;20114;-81
2023/03/17 05:50:25;;;;;;;7.03;3.92;;;;;;;;;;5155069;27;20109;-80
2023/03/17 05:52:52;;;;;;;7.13;4.15;;;;;;;;;;5151455;27;20410;-80
2023/03/17 05:55:18;;;;;;;6.38;3.85;;;;;;;;;;5145147;27;20055;-80
2023/03/17 05:57:45;;;;;;;7.97;4.22;;;;;;;;;;5155342;27;20398;-80
2023/03/17 06:00:12;;;;;;;7.78;4.43;;;;;;;;;;5137155;27;20047;-80
2023/03/17 06:02:38;;;;;;;7.18;4.20;;;;;;;;;;5148867;27;20068;-82
2023/03/17 06:05:05;;;;;;;9.30;4.40;;;;;;;;;;5152632;27;20043;-82
2023/03/17 06:07:31;;;;;;;8.18;4.07;;;;;;;;;;5129280;27;20081;-82
2023/03/17 06:09:57;;;;;;;7.28;4.53;;;;;;;;;;5126695;27;20042;-81
2023/03/17 06:12:24;;;;;;;11.73;4.53;;;;;;;;;;5157902;27;20068;-80
2023/03/17 06:14:50;;;;;;;8.18;4.80;;;;;;;;;;5157608;27;20146;-80
2023/03/17 06:17:17;;;;;;;8.77;4.68;;;;;;;;;;5136182;27;20047;-80
2023/03/17 06:19:43;;;;;;;8.35;4.95;;;;;;;;;;5140615;27;20050;-80
2023/03/17 06:22:09;;;;;;;8.48;5.00;;;;;;;;;;5123321;27;20387;-80
2023/03/17 06:24:35;;;;;;;7.50;4.90;;;;;;;;;;5155489;27;20034;-81
2023/03/17 06:27:01;;;;;;;10.85;4.63;;;;;;;;;;5156004;27;20046;-80
2023/03/17 06:29:28;;;;;;;10.27;5.60;;;;;;;;;;5140876;27;20030;-80
2023/03/17 06:31:54;;;;;;;9.60;5.78;;;;;;;;;;5150666;27;20053;-80
2023/03/17 06:34:21;;;;;;;8.60;4.70;;;;;;;;;;5137496;27;20471;-80
2023/03/17 06:36:47;;;;;;;8.32;4.40;;;;;;;;;;5151307;27;20490;-80
2023/03/17 06:39:14;;;;;;;9.55;4.70;;;;;;;;;;5149270;27;20052;-80
2023/03/17 06:41:40;;;;;;;7.18;4.35;;;;;;;;;;5157626;27;20379;-82
2023/03/17 06:44:07;;;;;;;8.73;4.15;;;;;;;;;;5157565;27;20073;-81
2023/03/17 06:46:34;;;;;;;8.98;4.88;;;;;;;;;;5146538;27;20490;-82
2023/03/17 06:49:02;;;;;;;6.85;4.13;;;;;;;;;;5157883;27;20091;-82
2023/03/17 06:51:28;;;;;;;8.05;4.03;;;;;;;;;;5157113;27;20038;-81
2023/03/17 06:53:55;;;;;;;12.27;4.10;;;;;;;;;;5157685;27;20117;-82
2023/03/17 06:56:21;;;;;;;7.43;4.28;;;;;;;;;;5157346;27;20121;-82
2023/03/17 06:58:47;;;;;;;6.55;3.78;;;;;;;;;;5156971;27;20053;-82
2023/03/17 07:01:13;;;;;;;7.55;4.30;;;;;;;;;;5150440;27;20157;-81
2023/03/17 07:03:40;;;;;;;7.10;3.58;;;;;;;;;;5175603;27;20070;-82
2023/03/17 07:06:07;;;;;;;8.18;4.28;;;;;;;;;;5145533;27;20088;-82
2023/03/17 07:08:33;;;;;;;7.80;4.22;;;;;;;;;;5128027;27;20111;-80
2023/03/17 07:11:00;;;;;;;8.55;4.30;;;;;;;;;;5155298;27;20485;-80
2023/03/17 07:13:26;;;;;;;5.70;3.63;;;;;;;;;;5157176;27;20034;-82
2023/03/17 07:15:53;;;;;;;6.88;3.70;;;;;;;;;;5157199;27;20038;-82
2023/03/17 07:18:19;;;;;;;6.68;3.78;;;;;;;;;;5157281;27;20050;-82
2023/03/17 07:20:48;;;;;;;7.25;4.00;;;;;;;;;;5141838;27;20039;-81
2023/03/17 07:23:15;;;;;;;6.55;3.53;;;;;;;;;;5156862;27;20040;-81
2023/03/17 07:25:42;;;;;;;6.90;4.00;;;;;;;;;;5138371;27;20045;-81
2023/03/17 07:28:08;;;;;;;7.35;4.07;;;;;;;;;;5154548;27;20474;-82
2023/03/17 07:30:35;;;;;;;9.23;4.38;;;;;;;;;;5156360;27;20498;-82
2023/03/17 07:33:01;;;;;;;9.80;4.78;;;;;;;;;;5139817;27;20034;-81
2023/03/17 07:35:27;;;;;;;8.25;4.57;;;;;;;;;;5143998;27;20458;-80
2023/03/17 07:37:53;;;;;;;6.93;4.47;;;;;;;;;;5154946;27;20086;-82
2023/03/17 07:40:20;;;;;;;8.18;3.75;;;;;;;;;;5156808;27;20520;-82
2023/03/17 07:42:46;;;;;;;8.13;4.00;;;;;;;;;;5156039;27;20117;-82
2023/03/17 07:45:12;;;;;;;8.43;4.18;;;;;;;;;;5165722;27;20042;-83
2023/03/17 07:47:39;;;;;;;8.68;3.92;;;;;;;;;;5151138;27;20038;-82
2023/03/17 07:50:05;;;;;;;5.72;3.95;;;;;;;;;;5156637;27;20389;-81
2023/03/17 07:52:31;;;;;;;8.07;3.72;;;;;;;;;;5156363;27;20078;-81
2023/03/17 07:54:57;;;;;;;6.40;3.67;;;;;;;;;;5156314;27;20490;-81
2023/03/17 07:57:24;;;;;;;6.40;4.03;;;;;;;;;;5139153;27;20077;-81
2023/03/17 07:59:50;;;;;;;9.05;4.20;;;;;;;;;;5138511;27;20038;-81
2023/03/17 08:02:16;;;;;;;5.68;3.70;;;;;;;;;;5156586;27;20397;-81
2023/03/17 08:04:43;;;;;;;6.72;4.10;;;;;;;;;;5172613;27;20129;-81
2023/03/17 08:07:10;;;;;;;7.50;3.75;;;;;;;;;;5155971;27;20145;-80
2023/03/17 08:09:36;;;;;;;7.93;4.10;;;;;;;;;;5142027;27;20078;-80
2023/03/17 08:12:03;;;;;;;7.25;4.15;;;;;;;;;;5139401;27;20490;-81
2023/03/17 08:14:29;;;;;;;8.38;4.22;;;;;;;;;;5156120;27;20080;-82
2023/03/17 08:16:56;;;;;;;6.20;4.05;;;;;;;;;;5155791;27;20046;-83
2023/03/17 08:19:23;;;;;;;6.50;4.00;;;;;;;;;;5149890;27;20042;-81
2023/03/17 08:21:49;;;;;;;6.22;4.13;;;;;;;;;;5148437;27;20045;-81
2023/03/17 08:24:15;;;;;;;7.38;4.15;;;;;;;;;;5174585;27;20555;-81
2023/03/17 08:26:42;;;;;;;7.88;4.20;;;;;;;;;;5155662;27;20121;-81
2023/03/17 08:29:08;;;;;;;6.10;3.88;;;;;;;;;;5156375;27;20543;-81
2023/03/17 08:31:35;;;;;;;7.15;3.85;;;;;;;;;;5129617;27;20038;-81
2023/03/17 08:34:03;;;;;;;7.03;4.20;;;;;;;;;;5149972;27;20375;-80
2023/03/17 08:36:29;;;;;;;7.43;4.28;;;;;;;;;;5147531;27;20042;-81
2023/03/17 08:38:55;;;;;;;8.70;4.00;;;;;;;;;;5113680;27;20084;-81
2023/03/17 08:41:23;;;;;;;5.35;3.70;;;;;;;;;;5159998;27;20038;-81
2023/03/17 08:43:50;;;;;;;7.05;4.00;;;;;;;;;;5159863;27;20081;-81
2023/03/17 08:46:24;;;;;;;5.95;3.58;;;;;;;;;;5160250;27;20443;-81
2023/03/17 08:48:52;;;;;;;6.57;3.70;;;;;;;;;;5147374;27;20482;-82
2023/03/17 08:51:19;;;;;;;9.07;4.38;;;;;;;;;;5144526;27;20402;-83
2023/03/17 08:53:45;;;;;;;7.80;4.43;;;;;;;;;;5142531;27;20375;-83
2023/03/17 08:56:12;;;;;;;8.32;4.63;;;;;;;;;;5160019;27;20332;-83
2023/03/17 08:58:39;;;;;;;12.98;4.95;;;;;;;;;;5159754;27;20034;-83
2023/03/17 09:01:06;;;;;;;11.50;5.30;;;;;;;;;;5163084;27;20035;-82
2023/03/17 09:03:32;;;;;;;12.32;5.82;;;;;;;;;;5159590;27;20085;-83
2023/03/17 09:05:58;;;;;;;11.43;5.20;;;;;;;;;;5177978;27;20117;-83
2023/03/17 09:08:26;;;;;;;12.75;5.10;;;;;;;;;;5159469;27;20050;-83
2023/03/17 09:10:53;;;;;;;11.20;5.38;;;;;;;;;;5159243;27;20107;-84
2023/03/17 09:13:19;;;;;;;8.90;4.53;;;;;;;;;;5142158;27;20043;-81
2023/03/17 09:15:45;;;;;;;6.25;4.05;;;;;;;;;;5154933;27;20109;-80
2023/03/17 09:18:11;;;;;;;9.00;4.07;;;;;;;;;;5132516;27;20045;-80
2023/03/17 09:20:38;;;;;;;7.35;3.78;;;;;;;;;;5111014;27;20074;-81
2023/03/17 09:23:08;;;;;;;8.93;3.50;;;;;;;;;;5159060;27;20053;-81
2023/03/17 09:25:36;;;;;;;6.93;3.17;;;;;;;;;;5159643;27;20042;-80
2023/03/17 09:28:02;;;;;;;6.07;2.97;;;;;;;;;;5159290;27;20042;-81
2023/03/17 09:30:28;;;;;;;6.90;4.85;;;;;;;;;;5142274;27;20052;-81
2023/03/17 09:32:54;;;;;;;8.07;5.00;;;;;;;;;;5158931;27;20098;-81
2023/03/17 09:35:21;;;;;;;9.82;5.10;;;;;;;;;;5159176;27;20573;-81
2023/03/17 09:37:47;;;;;;;9.27;5.35;;;;;;;;;;5158889;27;20125;-82
2023/03/17 09:40:17;;;;;;;14.00;7.20;;;;;;;;;;5158750;27;20046;-79
2023/03/17 09:42:57;;;;;;;9.43;5.68;;;;;;;;;;5158904;27;20042;-81
2023/03/17 09:45:31;;;;;;;7.88;4.40;;;;;;;;;;5159286;27;20117;-80
2023/03/17 09:47:57;;;;;;;9.60;4.53;;;;;;;;;;5158021;27;20034;-81
2023/03/17 09:50:25;;;;;;;7.75;4.05;;;;;;;;;;5161991;27;20395;-82
2023/03/17 09:52:51;;;;;;;5.65;3.55;;;;;;;;;;5138025;27;20030;-82
2023/03/17 09:55:28;;;;;;;6.80;3.90;;;;;;;;;;5152374;27;20042;-82
2023/03/17 09:57:55;;;;;;;6.03;3.72;;;;;;;;;;5124527;27;20042;-80
2023/03/17 10:00:26;;;;;;;5.85;3.38;;;;;;;;;;5138467;27;20046;-82
2023/03/17 10:02:52;;;;;;;6.88;3.63;;;;;;;;;;5171147;27;20066;-82
2023/03/17 10:05:23;;;;;;;7.20;3.65;;;;;;;;;;5156500;27;20038;-82
2023/03/17 10:08:03;;;;;;;6.07;3.60;;;;;;;;;;5131614;27;20054;-82
2023/03/17 10:10:48;;;;;;;5.20;3.50;;;;;;;;;;5153540;27;20383;-82
2023/03/17 10:13:21;;;;;;;5.70;3.67;;;;;;;;;;5151454;27;20034;-82
2023/03/17 10:15:58;;;;;;;9.23;3.53;;;;;;;;;;5158563;27;20038;-82
2023/03/17 10:18:26;;;;;;;6.00;3.72;;;;;;;;;;5143841;27;20050;-82
2023/03/17 10:20:55;;;;;;;6.57;3.60;;;;;;;;;;5158345;27;20076;-82
2023/03/17 10:23:25;;;;;;;6.47;3.78;;;;;;;;;;5158322;27;20485;-81
2023/03/17 10:25:52;;;;;;;7.90;3.67;;;;;;;;;;5157791;27;20443;-81
2023/03/17 10:28:24;;;;;;;6.70;3.80;;;;;;;;;;5140851;27;20386;-82
2023/03/17 10:30:51;;;;;;;7.32;3.85;;;;;;;;;;5126544;27;20034;-82
2023/03/17 10:33:17;;;;;;;6.93;3.90;;;;;;;;;;5157512;27;20034;-82
2023/03/17 10:35:44;;;;;;;6.50;3.72;;;;;;;;;;5155928;27;20042;-83
2023/03/17 10:38:16;;;;;;;6.40;3.80;;;;;;;;;;5145578;27;20034;-82
2023/03/17 10:40:46;;;;;;;6.35;3.40;;;;;;;;;;5157214;27;20079;-82
2023/03/17 10:43:16;;;;;;;5.45;3.50;;;;;;;;;;5127777;27;20045;-82
2023/03/17 10:45:46;;;;;;;6.38;3.28;;;;;;;;;;5143499;27;20115;-81
2023/03/17 10:48:17;;;;;;;8.50;3.60;;;;;;;;;;5129660;27;20117;-81
2023/03/17 10:50:45;;;;;;;5.20;3.60;;;;;;;;;;5157770;27;20046;-81
2023/03/17 10:53:26;;;;;;;5.63;3.45;;;;;;;;;;5139699;27;20042;-81
2023/03/17 10:55:54;;;;;;;6.50;3.60;;;;;;;;;;5157625;27;20113;-82
2023/03/17 10:58:26;;;;;;;8.10;3.67;;;;;;;;;;5157289;27;20099;-82
2023/03/17 11:01:04;;;;;;;6.40;3.88;;;;;;;;;;5133668;27;20475;-82
2023/03/17 11:03:34;;;;;;;5.85;3.90;;;;;;;;;;5129036;27;20042;-81
2023/03/17 11:06:02;;;;;;;7.05;4.20;;;;;;;;;;5156878;27;20039;-82
2023/03/17 11:08:34;;;;;;;7.63;4.15;;;;;;;;;;5145170;27;20074;-82
2023/03/17 11:11:04;;;;;;;14.15;4.50;;;;;;;;;;5133616;27;20131;-83
2023/03/17 11:13:30;;;;;;;7.10;4.07;;;;;;;;;;5136426;27;20038;-83
2023/03/17 11:16:17;;;;;;;7.80;4.20;;;;;;;;;;5133544;27;20589;-82
2023/03/17 11:18:43;;;;;;;7.95;4.50;;;;;;;;;;5154495;27;20049;-83
2023/03/17 11:21:19;;;;;;;7.30;4.43;;;;;;;;;;5110147;27;20510;-82
2023/03/17 11:23:51;;;;;;;6.45;4.07;;;;;;;;;;5136527;27;20057;-83
2023/03/17 11:26:30;;;;;;;8.85;4.20;;;;;;;;;;5151064;27;20129;-82
2023/03/17 11:29:15;;;;;;;6.10;3.97;;;;;;;;;;5136448;27;20570;-82
2023/03/17 11:31:41;;;;;;;6.65;4.45;;;;;;;;;;5173166;27;20490;-80
2023/03/17 11:34:08;;;;;;;6.63;4.22;;;;;;;;;;5139377;27;20045;-82
2023/03/17 11:36:35;;;;;;;6.43;4.32;;;;;;;;;;5157273;27;20427;-82
2023/03/17 11:39:10;;;;;;;8.25;4.50;;;;;;;;;;5156868;27;20038;-82
2023/03/17 11:41:46;;;;;;;6.15;4.10;;;;;;;;;;5156669;27;20052;-82
2023/03/17 11:44:39;;;;;;;6.85;4.65;;;;;;;;;;5156175;27;20042;-81
2023/03/17 11:47:16;;;;;;;7.88;4.90;;;;;;;;;;5151804;27;20061;-82
2023/03/17 11:49:45;;;;;;;7.88;5.07;;;;;;;;;;5118712;27;20045;-81
2023/03/17 11:52:31;;;;;;;7.63;4.85;;;;;;;;;;5149975;27;20049;-81
2023/03/17 11:55:07;;;;;;;8.25;5.10;;;;;;;;;;5168033;27;20542;-81
2023/03/17 11:57:52;;;;;;;7.57;4.60;;;;;;;;;;5139045;27;20042;-81
2023/03/17 12:00:25;;;;;;;12.77;5.20;;;;;;;;;;5138826;27;20038;-81
2023/03/17 12:02:55;;;;;;;7.18;4.95;;;;;;;;;;5174989;27;20038;-81
2023/03/17 12:05:31;;;;;;;8.93;5.05;;;;;;;;;;5134156;27;20038;-83
2023/03/17 12:08:12;;;;;;;12.32;5.50;;;;;;;;;;5135647;27;20058;-82
2023/03/17 12:10:50;;;;;;;7.93;5.72;;;;;;;;;;5135704;27;20034;-82
2023/03/17 12:13:32;;;;;;;8.23;5.15;;;;;;;;;;5150019;27;20045;-81
2023/03/17 12:16:05;;;;;;;7.93;5.30;;;;;;;;;;5106849;27;20386;-81
2023/03/17 12:18:41;;;;;;;11.32;5.70;;;;;;;;;;5169514;27;20038;-81
2023/03/17 12:21:36;;;;;;;10.00;5.68;;;;;;;;;;5130528;27;20489;-81
2023/03/17 12:24:02;;;;;;;10.17;5.80;;;;;;;;;;5077788;28;20056;-81
2023/03/17 12:26:34;;;;;;;9.85;6.32;;;;;;;;;;5120025;27;20042;-81
2023/03/17 12:29:13;;;;;;;9.85;5.78;;;;;;;;;;5138729;27;20131;-81
2023/03/17 12:31:43;;;;;;;8.80;6.07;;;;;;;;;;5139071;27;20041;-81
2023/03/17 12:34:14;;;;;;;12.00;6.03;;;;;;;;;;5156223;27;20042;-81
2023/03/17 12:36:41;;;;;;;10.77;6.15;;;;;;;;;;5156174;27;20050;-83
2023/03/17 12:39:15;;;;;;;10.57;6.28;;;;;;;;;;5158236;27;20070;-82
2023/03/17 12:41:47;;;;;;;8.65;6.30;;;;;;;;;;5135933;27;20117;-82
2023/03/17 12:44:14;;;;;;;9.63;6.10;;;;;;;;;;5120550;27;20507;-82
2023/03/17 12:46:46;;;;;;;9.85;5.80;;;;;;;;;;5156478;27;20038;-82
2023/03/17 12:49:27;;;;;;;9.70;6.40;;;;;;;;;;5141316;27;20121;-80
2023/03/17 12:51:54;;;;;;;9.75;6.45;;;;;;;;;;5127665;27;20531;-81
2023/03/17 12:54:24;;;;;;;10.40;6.28;;;;;;;;;;5138617;27;20390;-81
2023/03/17 12:56:50;;;;;;;11.05;6.22;;;;;;;;;;5139394;27;20042;-81
2023/03/17 12:59:19;;;;;;;12.50;5.97;;;;;;;;;;5138288;27;20502;-81
2023/03/17 13:01:52;;;;;;;9.63;5.65;;;;;;;;;;5154916;27;20134;-81
2023/03/17 13:04:23;;;;;;;11.98;5.82;;;;;;;;;;5138550;27;20474;-82
2023/03/17 13:06:59;;;;;;;8.60;5.40;;;;;;;;;;5121421;27;20406;-82
2023/03/17 13:09:31;;;;;;;9.48;6.07;;;;;;;;;;5142484;27;20468;-82
2023/03/17 13:11:57;;;;;;;10.13;5.72;;;;;;;;;;5151189;27;20034;-82
2023/03/17 13:14:25;;;;;;;10.82;6.00;;;;;;;;;;5126008;28;20121;-82
2023/03/17 13:16:51;;;;;;;9.05;6.05;;;;;;;;;;5129333;27;20049;-82
2023/03/17 13:19:22;;;;;;;9.55;5.80;;;;;;;;;;5124212;28;20101;-82
2023/03/17 13:21:51;;;;;;;9.07;6.45;;;;;;;;;;5127025;28;20391;-82
2023/03/17 13:24:17;;;;;;;12.38;5.70;;;;;;;;;;5117095;27;20480;-82
2023/03/17 13:26:49;;;;;;;10.65;5.88;;;;;;;;;;5148819;27;20054;-82
2023/03/17 13:29:38;;;;;;;11.40;6.43;;;;;;;;;;5119295;27;20472;-82
2023/03/17 13:32:16;;;;;;;12.50;5.97;;;;;;;;;;5135435;27;20043;-82
2023/03/17 13:34:48;;;;;;;9.80;6.45;;;;;;;;;;5135461;27;20491;-82
2023/03/17 13:37:25;;;;;;;8.98;6.20;;;;;;;;;;5135205;27;20118;-82
2023/03/17 13:40:10;;;;;;;11.52;7.03;;;;;;;;;;5118515;27;20039;-82
2023/03/17 13:42:57;;;;;;;13.40;6.80;;;;;;;;;;5135226;27;20047;-82
2023/03/17 13:45:23;;;;;;;;;;;;;;;;;;5118390;27;20122;-82
2023/03/17 13:47:50;;;;;;;13.75;7.68;;;;;;;;;;5135282;27;20399;-82
2023/03/17 13:50:16;;;;;;;12.27;7.53;;;;;;;;;;5135477;27;20053;-82
2023/03/17 13:52:46;;;;;;;10.68;7.10;;;;;;;;;;5118392;27;20411;-82
2023/03/17 13:55:22;;;;;;;10.50;6.68;;;;;;;;;;5136566;27;20067;-82
2023/03/17 13:57:48;;;;;;;;;;;;;;;;;;5150249;27;20057;-82
2023/03/17 14:00:17;;;;;;;10.23;7.45;;;;;;;;;;5135100;27;19920;-82
2023/03/17 14:02:44;;;;;;;9.57;7.25;;;;;;;;;;5135833;27;20055;-82
2023/03/17 14:05:19;;;;;;;9.95;6.72;;;;;;;;;;5137666;27;20043;-82
2023/03/17 14:07:52;;;;;;;12.30;6.80;;;;;;;;;;5117803;27;20251;-82
2023/03/17 14:10:23;;;;;;;10.73;6.97;;;;;;;;;;5135078;27;20053;-82
2023/03/17 14:12:54;;;;;;;10.57;6.80;;;;;;;;;;5145691;27;20558;-82
2023/03/17 14:15:20;;;;;;;8.93;6.78;;;;;;;;;;5120819;27;20163;-82
2023/03/17 14:17:49;;;;;;;12.35;7.50;;;;;;;;;;5134490;27;20115;-82
2023/03/17 14:20:17;;;;;;;13.30;7.15;;;;;;;;;;5132198;27;20039;-81
2023/03/17 14:22:44;;;;;;;12.85;7.40;;;;;;;;;;5142357;27;20046;-82
2023/03/17 14:25:15;;;;;;;11.02;7.15;;;;;;;;;;5155306;27;20038;-81
2023/03/17 14:27:43;;;;;;;13.07;7.80;;;;;;;;;;5127899;27;20493;-82
2023/03/17 14:30:16;;;;;;;10.68;6.90;;;;;;;;;;5155229;27;20513;-82
2023/03/17 14:32:45;;;;;;;12.20;8.18;;;;;;;;;;5134022;27;20114;-81
2023/03/17 14:35:12;;;;;;;14.13;8.15;;;;;;;;;;5133761;27;20043;-82
2023/03/17 14:37:38;;;;;;;11.15;7.60;;;;;;;;;;5148493;27;20047;-82
2023/03/17 14:40:18;;;;;;;11.25;8.48;;;;;;;;;;5134200;27;20078;-81
2023/03/17 14:42:44;;;;;;;13.98;7.80;;;;;;;;;;5148817;27;20398;-82
2023/03/17 14:45:19;;;;;;;10.60;6.80;;;;;;;;;;5117029;27;20147;-81
2023/03/17 14:47:45;;;;;;;11.93;8.00;;;;;;;;;;5152120;27;20031;-81
2023/03/17 14:50:22;;;;;;;12.60;7.93;;;;;;;;;;5127375;27;20061;-81